Airfield :
LOGIN :

Register | Disclaimer

   EN    FR    IT 

 










Legend :    VFR   Marginal VFR   IFR   Intensive IFR   Very Intensive IFR
Visi :
Ceiling :
>= 8 km
>= 3000ft
5 to 8 km
1000 to 3000 ft
1500m to 5 km
500 to 1000 ft
800 to 1500m
200 to 500 ft
< 800m
< 200 ft
Symbols :   Thunderstorms  Fog  Heavy snow  Heavy precipitations  Wind > 20 kt
SIGMETs :     Misc.  Thunderstorms  Icing  Turbulence  Mountain Waves  Volcanic Ashes







- Airport Elevation : 1682 ft
- IATA code : VIT


LEVT - Vitoria Gasteiz

CURRENT METAR :
  • 250130Z VRB02KT CAVOK 13/12 Q1018

EXPIRED METARs :
  • 250100Z VRB02KT 9999 FEW025 12/12 Q1018
  • 250030Z 00000KT 9999 FEW025 13/12 Q1018
  • 250000Z 00000KT 9999 FEW025 14/12 Q1018
  • 242330Z 35005KT 9999 FEW020 14/13 Q1018
  • 242300Z 00000KT 9999 FEW020 14/13 Q1018

TAF TAF LEVT
Valid from the 25 at 00:00 until the 26 at 00:00 UTC


242300Z 2500/2524 VRB04KT 9999 FEW025 TX33/2515Z TN13/2505Z
PROB30
TEMPO 2500/2507 3000 BR BKN005
TEMPO 2512/2520 01010KT
No reported NOTAMs for that airfield.



MET'MAP, your aeronautical weather chart ! - Copyright ORBIFLY December 2007 - Disclaimer

ORBIFLY MET'MAP TEAM :

Programming & Development : Alexandra Zaïnal
Concept & Development : Baudouin d'Aumeries
Co-Development & Prog : Marc-Olivier Méhu
Technical & hardware support : Manuel Goepfert

Contact : metmap@orbifly.com




SOURCES & CREDITS :

   NOAA